Latest Weather Observations for Warragul (Nilma North)

IDV60801

Issued at 9:31 pm EST Tuesday 21 April 2015 (issued every 30 minutes, with the page automatically refreshed every 10 minutes)

About weather observations | Map of weather stations | Latest weather observations for VIC | Other Formats
Station Details ID: 085313 Name: NILMA NORTH (WARRAGUL) Lat: -38.13 Lon: 145.99 Height: 134.11 m
Data from the previous 72 hours. | See also: Recent months for locations in Victoria
Date/Time
EST
Temp
°C
App
Temp
°C
Dew
Point
Rel
Hum
%
Delta-T
°C
Wind Press
QNH
hPa
Press
MSL
hPa
Rain
since 9 am
mm
Dir
 
Spd
km/h
Gust
km/h
Spd
kts
Gust
kts
21/09:30pm 8.3 6.5 5.4 82 1.3 ESE 4 7 2 4 1029.9 1029.8 0.0
21/09:00pm 8.5 6.2 5.8 83 1.2 E 7 9 4 5 1029.8 1029.7 0.0
21/08:30pm 9.1 6.8 5.7 79 1.6 ESE 7 9 4 5 1029.9 1029.8 0.0
21/08:00pm 8.9 6.7 5.5 79 1.5 E 6 9 3 5 1030.0 1029.9 0.0
21/07:30pm 9.5 7.2 5.7 77 1.7 E 7 9 4 5 1030.0 1029.9 0.0
21/07:00pm 10.3 8.0 5.5 72 2.2 ESE 7 9 4 5 1029.8 1029.7 0.0
21/06:30pm 11.6 8.9 5.7 67 2.8 ESE 9 15 5 8 1029.7 1029.6 0.0
21/06:00pm 12.6 9.4 5.3 61 3.4 ESE 11 17 6 9 1029.5 1029.4 0.0
21/05:30pm 13.3 10.3 5.9 61 3.5 E 11 17 6 9 1029.3 1029.2 0.0
21/05:00pm 14.5 11.4 5.6 55 4.2 E 11 19 6 10 1029.2 1029.1 0.0
21/04:30pm 15.3 11.8 5.5 52 4.7 E 13 20 7 11 1029.3 1029.2 0.0
21/04:00pm 15.5 11.7 5.7 52 4.7 E 15 22 8 12 1029.5 1029.4 0.0
21/03:30pm 15.4 12.9 6.7 56 4.3 ESE 9 15 5 8 1029.7 1029.6 0.0
21/03:00pm 15.8 13.4 6.8 55 4.4 E 9 13 5 7 1029.8 1029.7 0.0
21/02:30pm 14.8 11.5 6.4 57 4.1 SE 13 19 7 10 1029.7 1029.6 0.0
21/02:00pm 15.6 12.8 7.1 57 4.2 E 11 20 6 11 1029.7 1029.6 0.0
21/01:30pm 14.9 11.7 6.7 58 4.0 ESE 13 22 7 12 1030.0 1029.9 0.0
21/01:00pm 14.7 11.0 6.5 58 4.0 ESE 15 24 8 13 1030.4 1030.3 0.0
21/12:30pm 14.4 10.9 7.0 61 3.6 ESE 15 24 8 13 1031.0 1030.9 0.0
21/12:00pm 14.1 10.6 7.4 64 3.3 E 15 20 8 11 1031.6 1031.5 0.0
21/11:30am 13.9 10.9 7.9 67 3.0 ESE 13 20 7 11 1031.9 1031.8 0.0
21/11:00am 13.0 10.0 7.5 69 2.7 E 13 20 7 11 1032.3 1032.2 0.0
21/10:30am 12.7 10.7 7.2 69 2.7 E 7 11 4 6 1032.5 1032.4 0.0
21/10:00am 11.2 9.2 6.9 75 2.0 ESE 7 9 4 5 1032.8 1032.7 0.0
21/09:30am 9.9 8.4 6.6 80 1.6 E 4 6 2 3 1033.0 1032.9 0.0
21/09:00am 8.8 7.6 6.4 85 1.1 ESE 2 4 1 2 1033.2 1033.1 0.0
21/08:30am 6.9 5.9 5.8 93 0.5 CALM 0 0 0 0 1033.6 1033.5 0.0
21/08:00am 4.7 3.1 4.4 98 0.1 E 2 6 1 3 1033.6 1033.5 0.0
21/07:30am 2.1 0.4 1.8 98 0.1 CALM 0 0 0 0 1033.5 1033.4 0.0
21/07:00am 0.6 -1.4 0.2 97 0.1 CALM 0 0 0 0 1033.3 1033.2 0.0
21/06:30am 1.4 -0.4 1.0 97 0.2 CALM 0 0 0 0 1033.3 1033.2 0.0
21/06:00am 1.7 -0.1 1.4 98 0.1 CALM 0 0 0 0 1033.2 1033.1 0.0
21/05:30am 1.6 -0.2 1.2 97 0.2 CALM 0 0 0 0 1033.1 1033.0 0.0
21/05:00am 1.1 -0.8 0.7 97 0.1 CALM 0 0 0 0 1032.9 1032.8 0.0
21/04:30am 1.8 -0.3 1.4 97 0.2 SSE 2 6 1 3 1032.8 1032.7 0.0
21/04:00am 1.5 -0.3 0.9 96 0.2 CALM 0 2 0 1 1032.7 1032.6 0.0
21/03:30am 2.5 0.8 1.9 96 0.2 CALM 0 0 0 0 1032.9 1032.8 0.0
21/03:00am 2.3 0.6 1.6 95 0.3 CALM 0 0 0 0 1033.2 1033.1 0.0
21/02:30am 2.8 0.8 2.1 95 0.3 ESE 2 4 1 2 1033.6 1033.5 0.0
21/02:00am 3.7 2.2 2.8 94 0.4 CALM 0 4 0 2 1033.9 1033.9 0.0
21/01:30am 4.5 3.1 3.5 93 0.4 CALM 0 0 0 0 1034.2 1034.2 0.0
21/01:00am 4.2 2.7 2.9 91 0.5 CALM 0 0 0 0 1034.3 1034.3 0.0
21/12:30am 5.5 3.8 3.8 89 0.7 NW 2 4 1 2 1034.2 1034.2 0.0
21/12:00am 5.4 4.1 3.9 90 0.6 CALM 0 0 0 0 1034.3 1034.3 0.0
 
Date/Time
EST
Temp
°C
App
Temp
°C
Dew
Point
Rel
Hum
%
Delta-T
°C
Wind Press
QNH
hPa
Press
MSL
hPa
Rain
since 9 am
mm
Dir
 
Spd
km/h
Gust
km/h
Spd
kts
Gust
kts
20/11:30pm 5.5 4.2 4.0 90 0.6 CALM 0 0 0 0 1034.6 1034.6 0.0
20/11:00pm 6.0 4.6 3.8 86 0.9 CALM 0 0 0 0 1034.7 1034.7 0.0
20/10:30pm 6.6 5.3 4.3 85 1.0 CALM 0 2 0 1 1034.9 1034.9 0.0
20/10:00pm 6.8 4.7 4.1 83 1.2 ENE 4 6 2 3 1035.2 1035.2 0.0
20/09:30pm 7.3 5.2 4.1 80 1.4 NE 4 6 2 3 1035.2 1035.2 0.0
20/09:00pm 7.9 6.7 4.7 80 1.4 CALM 0 0 0 0 1035.2 1035.2 0.0
20/08:30pm 8.5 6.9 4.5 76 1.8 ESE 2 6 1 3 1035.2 1035.2 0.0
20/08:00pm 9.0 7.0 4.2 72 2.1 ESE 4 7 2 4 1035.1 1035.1 0.0
20/07:30pm 9.6 7.0 4.4 70 2.3 SE 7 9 4 5 1034.9 1034.9 0.0
20/07:00pm 10.1 7.2 4.7 69 2.4 SSE 9 17 5 9 1034.8 1034.8 0.0
20/06:30pm 10.2 7.3 4.6 68 2.5 SSE 9 13 5 7 1034.7 1034.7 0.0
20/06:00pm 10.5 7.6 4.6 67 2.6 SSE 9 15 5 8 1034.5 1034.5 0.0
20/05:30pm 11.6 8.8 5.3 65 2.9 SSE 9 15 5 8 1034.2 1034.2 0.0
20/05:00pm 12.6 9.3 4.8 59 3.6 SSE 11 19 6 10 1034.0 1034.0 0.0
20/04:30pm 13.6 10.2 3.9 52 4.4 SSE 11 20 6 11 1033.9 1033.9 0.0
20/04:00pm 14.3 10.8 3.5 48 4.9 SSE 11 17 6 9 1033.8 1033.8 0.0
20/03:30pm 14.1 10.7 2.0 44 5.3 SSE 9 15 5 8 1033.9 1033.9 0.0
20/03:00pm 15.0 11.4 3.2 45 5.3 SE 11 19 6 10 1033.9 1033.9 0.0
20/02:30pm 15.0 11.7 2.5 43 5.6 ESE 9 17 5 9 1034.1 1034.1 0.0
20/02:00pm 14.5 10.9 2.7 45 5.2 SE 11 19 6 10 1034.2 1034.2 0.0
20/01:30pm 14.6 11.0 3.1 46 5.2 SE 11 19 6 10 1034.5 1034.5 0.0
20/01:00pm 14.8 11.6 3.0 45 5.3 SE 9 15 5 8 1034.6 1034.6 0.0
20/12:30pm 14.2 11.1 3.4 48 4.9 SE 9 15 5 8 1035.2 1035.2 0.0
20/12:00pm 14.3 11.8 4.9 53 4.4 SE 7 13 4 7 1035.7 1035.7 0.0
20/11:30am 13.5 10.3 4.9 56 4.0 E 11 20 6 11 1036.2 1036.2 0.0
20/11:00am 12.9 10.1 5.3 60 3.5 ESE 9 13 5 7 1036.5 1036.5 0.0
20/10:30am 12.7 10.8 6.7 67 2.9 SE 6 9 3 5 1036.6 1036.6 0.0
20/10:00am 12.5 11.0 6.8 68 2.7 ENE 4 7 2 4 1036.7 1036.7 0.0
20/09:30am 11.3 10.0 5.8 69 2.6 ENE 2 6 1 3 1036.8 1036.8 0.0
20/09:00am 10.4 8.6 5.6 72 2.2 NE 4 6 2 3 1036.8 1036.8 3.6
20/08:30am 7.7 6.6 5.2 84 1.1 CALM 0 0 0 0 1036.7 1036.7 3.6
20/08:00am 6.1 4.5 4.3 88 0.8 NNW 2 6 1 3 1036.5 1036.5 3.6
20/07:30am 4.3 2.9 3.4 94 0.4 CALM 0 0 0 0 1036.2 1036.2 3.6
20/07:00am 3.1 1.4 2.1 93 0.4 CALM 0 0 0 0 1035.9 1035.9 3.6
20/06:30am 3.9 2.3 2.6 91 0.5 CALM 0 0 0 0 1035.7 1035.7 3.6
20/06:00am 4.2 2.7 3.0 92 0.5 CALM 0 0 0 0 1035.5 1035.5 3.6
20/05:30am 4.3 2.5 3.3 93 0.4 N 2 4 1 2 1035.2 1035.2 3.6
20/05:00am 4.9 3.5 3.6 91 0.5 CALM 0 0 0 0 1034.9 1034.9 3.6
20/04:30am 4.7 3.3 3.7 93 0.4 CALM 0 0 0 0 1034.6 1034.6 3.6
20/04:00am 4.1 2.6 3.2 94 0.4 CALM 0 4 0 2 1034.3 1034.3 3.6
20/03:30am 4.1 2.6 3.2 94 0.4 CALM 0 4 0 2 1034.3 1034.3 3.6
20/03:00am 3.5 1.5 2.5 93 0.4 SW 2 4 1 2 1034.3 1034.3 3.6
20/02:30am 4.0 2.1 2.8 92 0.5 WNW 2 4 1 2 1034.4 1034.4 3.6
20/02:00am 4.3 1.7 3.3 93 0.4 NE 6 9 3 5 1034.4 1034.4 3.6
20/01:30am 3.9 1.9 2.3 89 0.6 WSW 2 4 1 2 1034.5 1034.5 3.6
20/01:00am 4.8 2.6 3.1 89 0.7 NW 4 6 2 3 1034.3 1034.3 3.6
20/12:30am 5.3 2.8 3.5 88 0.8 NW 6 6 3 3 1034.5 1034.5 3.6
20/12:00am 4.6 2.7 3.1 90 0.6 ENE 2 4 1 2 1034.6 1034.6 3.6
 
Date/Time
EST
Temp
°C
App
Temp
°C
Dew
Point
Rel
Hum
%
Delta-T
°C
Wind Press
QNH
hPa
Press
MSL
hPa
Rain
since 9 am
mm
Dir
 
Spd
km/h
Gust
km/h
Spd
kts
Gust
kts
19/11:30pm 5.2 3.7 3.1 86 0.9 CALM 0 0 0 0 1034.6 1034.6 3.6
19/11:00pm 6.3 4.1 3.6 83 1.1 NW 4 7 2 4 1034.4 1034.4 3.6
19/10:30pm 6.1 3.3 3.3 82 1.2 NNW 7 11 4 6 1034.3 1034.3 3.6
19/10:00pm 6.3 3.8 3.6 83 1.1 WNW 6 7 3 4 1034.1 1034.1 3.6
19/09:30pm 7.7 5.5 3.2 73 1.9 NW 4 4 2 2 1034.0 1034.0 3.6
19/09:00pm 7.4 6.1 4.0 79 1.5 CALM 0 2 0 1 1033.9 1033.9 3.6
19/08:30pm 7.6 6.3 4.0 78 1.6 CALM 0 0 0 0 1033.5 1033.4 3.6
19/08:00pm 8.1 6.4 3.9 75 1.8 WNW 2 4 1 2 1033.1 1033.0 3.6
19/07:30pm 8.2 6.8 3.5 72 2.0 CALM 0 2 0 1 1032.8 1032.7 3.6
19/07:00pm 8.6 6.1 3.6 71 2.2 WSW 6 13 3 7 1032.4 1032.3 3.6
19/06:30pm 9.4 7.2 3.2 65 2.7 SW 4 9 2 5 1031.7 1031.6 3.6
19/06:00pm 9.4 6.7 2.7 63 2.8 SSW 6 9 3 5 1031.2 1031.1 3.6
19/05:30pm 10.1 6.6 3.4 63 2.9 S 11 15 6 8 1030.7 1030.6 3.6
19/05:00pm 10.9 7.3 3.2 59 3.4 S 11 19 6 10 1030.2 1030.1 3.6
19/04:30pm 11.4 7.6 3.9 60 3.4 SSW 13 20 7 11 1029.8 1029.7 3.6
19/04:00pm 12.4 7.8 1.4 47 4.7 SSW 15 24 8 13 1029.3 1029.2 3.6
19/03:30pm 11.9 7.2 3.4 56 3.8 S 17 32 9 17 1029.0 1029.0 3.6
19/03:00pm 13.4 9.0 4.8 56 4.0 SSW 17 33 9 18 1028.6 1028.6 3.6
19/02:30pm 13.3 8.4 3.9 53 4.3 S 19 28 10 15 1028.3 1028.3 3.6
19/02:00pm 12.4 6.8 3.4 54 4.0 SSW 22 39 12 21 1028.0 1028.0 3.6
19/01:30pm 12.6 7.6 3.8 55 4.0 S 19 33 10 18 1027.6 1027.6 3.6
19/01:00pm 12.1 8.0 4.1 58 3.6 SSW 15 28 8 15 1027.4 1027.4 3.6
19/12:30pm 12.0 10.0 7.1 72 2.4 W 7 15 4 8 1027.3 1027.2 3.6
19/12:00pm 10.1 8.3 8.0 87 1.0 NW 7 15 4 8 1027.4 1027.4 3.6
19/11:30am 8.5 6.5 6.1 85 1.1 WSW 6 22 3 12 1027.3 1027.2 3.6
19/11:00am 11.7 10.1 6.2 69 2.6 SSW 4 6 2 3 1026.7 1026.6 0.0
19/10:30am 11.4 10.0 7.3 76 2.0 ENE 4 6 2 3 1026.3 1026.2 0.0
19/10:00am 10.6 9.9 7.1 79 1.7 CALM 0 2 0 1 1026.3 1026.2 0.0
19/09:30am 9.8 8.7 6.7 81 1.5 NE 2 4 1 2 1026.0 1025.9 0.0
19/09:00am 8.9 7.0 6.7 86 1.0 WSW 6 9 3 5 1025.6 1025.5 8.4
19/08:30am 9.3 8.8 7.9 91 0.7 CALM 0 4 0 2 1025.1 1025.0 8.0
19/08:00am 8.7 7.8 7.6 93 0.5 NW 2 7 1 4 1024.2 1024.1 8.0
19/07:30am 7.6 6.4 6.5 93 0.5 NW 2 4 1 2 1023.2 1023.1 8.0
19/07:00am 8.0 6.5 6.6 91 0.6 W 4 7 2 4 1022.5 1022.4 8.0
19/06:30am 7.3 5.2 5.8 90 0.7 WNW 6 7 3 4 1021.6 1021.5 8.0
19/06:00am 8.4 4.7 6.5 88 0.9 W 15 24 8 13 1021.0 1021.0 7.8
19/05:30am 8.1 5.6 6.4 89 0.8 WNW 9 13 5 7 1020.3 1020.2 7.8
19/05:00am 8.7 6.0 7.5 92 0.6 WNW 11 22 6 12 1019.8 1019.7 7.8
19/04:30am 8.6 6.9 7.4 92 0.6 NW 6 11 3 6 1019.3 1019.2 7.8
19/04:00am 8.9 7.2 7.5 91 0.7 WNW 6 7 3 4 1018.9 1018.8 7.8
19/03:30am 9.7 6.8 8.0 89 0.8 W 13 19 7 10 1018.7 1018.6 7.8
19/03:00am 9.5 6.3 8.4 93 0.5 WNW 15 22 8 12 1018.4 1018.3 7.8
19/02:30am 9.7 6.2 8.9 95 0.4 WNW 17 20 9 11 1018.1 1018.0 7.8
19/02:00am 9.4 7.4 8.8 96 0.3 WNW 9 13 5 7 1017.9 1017.8 7.8
19/01:30am 9.5 8.1 8.9 96 0.3 WNW 6 9 3 5 1017.8 1017.7 7.8
19/01:00am 9.4 7.5 8.9 97 0.2 NW 9 15 5 8 1017.7 1017.6 7.8
19/12:30am 9.6 7.7 9.1 97 0.2 NW 9 15 5 8 1017.6 1017.5 7.0
19/12:00am 9.6 7.3 9.0 96 0.3 WNW 11 19 6 10 1017.6 1017.5 6.4
 
Date/Time
EST
Temp
°C
App
Temp
°C
Dew
Point
Rel
Hum
%
Delta-T
°C
Wind Press
QNH
hPa
Press
MSL
hPa
Rain
since 9 am
mm
Dir
 
Spd
km/h
Gust
km/h
Spd
kts
Gust
kts
18/11:30pm 9.6 6.2 9.0 96 0.3 WNW 17 24 9 13 1017.1 1017.0 5.6
18/11:00pm 9.5 7.2 9.0 97 0.2 NW 11 19 6 10 1017.1 1017.0 5.2
18/10:30pm 9.6 7.7 9.1 97 0.2 NW 9 17 5 9 1017.2 1017.1 5.0
18/10:00pm 9.7 7.0 9.1 96 0.3 WNW 13 22 7 12 1017.1 1017.0 4.8

Other Formats:

Comma delimited format used in spreadsheet applications
http://www.bom.gov.au/fwo/IDV60801/IDV60801.99806.axf

JavaScript Object Notation format (JSON) in row-major order
http://www.bom.gov.au/fwo/IDV60801/IDV60801.99806.json